createdAt,value
2018-04-10T00:01:51.059Z,45.50
2018-04-10T00:04:17.531Z,45.60
2018-04-10T00:06:43.742Z,45.60
2018-04-10T00:09:09.924Z,45.60
2018-04-10T00:11:36.171Z,45.50
2018-04-10T00:14:02.412Z,45.60
2018-04-10T00:16:29.344Z,45.50
2018-04-10T00:18:56.483Z,45.40
2018-04-10T00:21:22.851Z,45.50
2018-04-10T00:23:49.061Z,45.50
2018-04-10T00:26:16.128Z,45.40
2018-04-10T00:28:42.461Z,45.40
2018-04-10T00:31:08.776Z,45.40
2018-04-10T00:33:37.805Z,45.50
2018-04-10T00:36:04.094Z,45.30
2018-04-10T00:38:31.296Z,45.30
2018-04-10T00:40:57.473Z,45.30
2018-04-10T00:43:23.912Z,45.20
2018-04-10T00:45:50.176Z,45.30
2018-04-10T00:48:16.363Z,45.30
2018-04-10T00:50:42.675Z,45.30
2018-04-10T00:53:08.930Z,45.20
2018-04-10T00:55:35.176Z,45.20
2018-04-10T00:58:01.475Z,45.20
2018-04-10T01:00:27.710Z,45.20
2018-04-10T01:02:53.980Z,45.10
2018-04-10T01:05:20.143Z,45.10
2018-04-10T01:07:47.264Z,45.20
2018-04-10T01:10:13.584Z,45.10
2018-04-10T01:12:39.787Z,45.20
2018-04-10T01:15:06.033Z,45.10
2018-04-10T01:17:37.660Z,45.10
2018-04-10T01:20:03.918Z,45.10
2018-04-10T01:22:30.177Z,45.00
2018-04-10T01:24:57.157Z,45.10
2018-04-10T01:27:23.316Z,45.00
2018-04-10T01:29:49.512Z,45.00
2018-04-10T01:32:15.741Z,45.00
2018-04-10T01:34:41.963Z,45.00
2018-04-10T01:37:08.122Z,44.90
2018-04-10T01:39:34.409Z,45.00
2018-04-10T01:42:00.591Z,44.90
2018-04-10T01:44:26.924Z,44.90
2018-04-10T01:46:53.152Z,44.90
2018-04-10T01:49:19.444Z,44.90
2018-04-10T01:51:45.950Z,44.90
2018-04-10T01:54:12.207Z,44.90
2018-04-10T01:56:38.379Z,44.80
2018-04-10T01:59:04.670Z,44.80
2018-04-10T02:01:30.826Z,44.80
2018-04-10T02:03:57.055Z,44.80
2018-04-10T02:06:23.218Z,44.80
2018-04-10T02:08:49.381Z,44.80
2018-04-10T02:11:15.704Z,44.80
2018-04-10T02:13:41.940Z,44.80
2018-04-10T02:16:08.092Z,44.80
2018-04-10T02:18:34.331Z,44.80
2018-04-10T02:21:01.607Z,44.70
2018-04-10T02:23:27.897Z,44.70
2018-04-10T02:25:54.362Z,44.70
2018-04-10T02:28:20.942Z,44.70
2018-04-10T02:30:47.135Z,44.70
2018-04-10T02:33:13.317Z,44.70
2018-04-10T02:35:39.540Z,44.70
2018-04-10T02:38:05.780Z,44.70
2018-04-10T02:40:32.082Z,44.60
2018-04-10T02:42:58.315Z,44.60
2018-04-10T02:45:24.549Z,44.60
2018-04-10T02:47:55.892Z,44.60
2018-04-10T02:50:22.275Z,44.70
2018-04-10T02:52:48.547Z,44.60
2018-04-10T02:55:14.776Z,44.60
2018-04-10T02:57:43.872Z,44.60
2018-04-10T03:00:13.691Z,44.60
2018-04-10T03:02:40.063Z,44.60
2018-04-10T03:05:06.353Z,44.50
2018-04-10T03:07:32.618Z,44.50
2018-04-10T03:09:59.120Z,44.60
2018-04-10T03:12:25.352Z,44.60
2018-04-10T03:14:51.574Z,44.60
2018-04-10T03:17:17.944Z,44.60
2018-04-10T03:19:44.249Z,44.60
2018-04-10T03:22:11.284Z,44.50
2018-04-10T03:24:37.622Z,44.40
2018-04-10T03:27:04.084Z,44.40
2018-04-10T03:29:30.394Z,44.60
2018-04-10T03:31:56.723Z,44.60
2018-04-10T03:34:23.764Z,44.60
2018-04-10T03:36:50.816Z,44.50
2018-04-10T03:39:17.855Z,44.50
2018-04-10T03:41:44.812Z,44.60
2018-04-10T03:44:11.853Z,44.50
2018-04-10T03:46:38.089Z,44.40
2018-04-10T03:49:04.459Z,44.50
2018-04-10T03:51:30.643Z,44.40
2018-04-10T03:56:29.551Z,44.30
2018-04-10T03:58:55.771Z,44.50
2018-04-10T04:01:22.121Z,44.50
2018-04-10T04:03:48.339Z,44.50
2018-04-10T04:06:14.563Z,44.40
2018-04-10T04:08:41.620Z,44.50
2018-04-10T04:11:08.054Z,44.40
2018-04-10T04:13:34.367Z,44.40
2018-04-10T04:16:01.470Z,44.40
2018-04-10T04:18:27.854Z,44.30
2018-04-10T04:20:54.062Z,44.50
2018-04-10T04:23:20.629Z,44.50
2018-04-10T04:25:46.845Z,44.50
2018-04-10T04:28:13.295Z,44.40
2018-04-10T04:30:39.551Z,44.40
2018-04-10T04:33:05.739Z,44.50
2018-04-10T04:35:31.919Z,44.50
2018-04-10T04:37:58.077Z,44.50
2018-04-10T04:40:24.263Z,44.40
2018-04-10T04:42:50.561Z,44.40
2018-04-10T04:45:16.965Z,44.40
2018-04-10T04:47:43.311Z,44.30
2018-04-10T04:50:09.778Z,44.50
2018-04-10T04:52:36.075Z,44.40
2018-04-10T04:55:02.315Z,44.40
2018-04-10T04:57:29.532Z,44.30
2018-04-10T04:59:56.091Z,44.30
2018-04-10T05:02:22.538Z,44.40
2018-04-10T05:04:48.862Z,44.30
2018-04-10T05:07:15.380Z,44.30
2018-04-10T05:09:41.716Z,44.40
2018-04-10T05:12:08.182Z,44.40
2018-04-10T05:14:34.486Z,44.40
2018-04-10T05:17:00.718Z,44.50
2018-04-10T05:19:26.943Z,44.30
2018-04-10T05:21:53.383Z,44.40
2018-04-10T05:24:19.599Z,44.40
2018-04-10T05:26:45.834Z,44.40
2018-04-10T05:29:12.275Z,44.30
2018-04-10T05:31:38.495Z,44.30
2018-04-10T05:34:04.903Z,44.30
2018-04-10T05:36:31.327Z,44.30
2018-04-10T05:38:57.590Z,44.30
2018-04-10T05:41:23.987Z,44.30
2018-04-10T05:43:50.259Z,44.30
2018-04-10T05:46:16.492Z,44.30
2018-04-10T05:48:42.716Z,44.30
2018-04-10T05:51:08.919Z,44.40
2018-04-10T05:53:35.341Z,44.50
2018-04-10T05:56:01.505Z,44.60
2018-04-10T05:58:27.884Z,44.50
2018-04-10T06:00:54.064Z,44.60
2018-04-10T06:03:20.388Z,44.60
2018-04-10T06:05:47.340Z,44.70
2018-04-10T06:08:13.562Z,44.60
2018-04-10T06:10:39.797Z,44.70
2018-04-10T06:13:06.028Z,44.70
2018-04-10T06:15:32.382Z,44.90
2018-04-10T06:17:59.668Z,44.90
2018-04-10T06:20:25.831Z,44.80
2018-04-10T06:22:52.314Z,44.90
2018-04-10T06:25:18.494Z,44.80
2018-04-10T06:27:44.724Z,44.80
2018-04-10T06:30:10.965Z,44.90
2018-04-10T06:32:38.003Z,45.80
2018-04-10T06:35:07.896Z,44.90
2018-04-10T06:37:34.143Z,45.00
2018-04-10T06:40:00.384Z,45.00
2018-04-10T06:42:27.323Z,45.00
2018-04-10T06:44:53.540Z,44.90
2018-04-10T06:47:19.800Z,44.90
2018-04-10T06:49:46.112Z,44.90
2018-04-10T06:52:13.051Z,45.00
2018-04-10T06:54:39.321Z,44.90
2018-04-10T06:57:05.712Z,45.00
2018-04-10T06:59:31.941Z,45.00
2018-04-10T07:01:58.353Z,45.00
2018-04-10T07:04:24.601Z,45.00
2018-04-10T07:06:51.652Z,45.10
2018-04-10T07:09:17.879Z,45.00
2018-04-10T07:11:44.252Z,45.00
2018-04-10T07:14:10.540Z,45.00
2018-04-10T07:16:36.947Z,45.00
2018-04-10T07:19:03.336Z,45.10
2018-04-10T07:21:29.647Z,45.00
2018-04-10T07:23:55.985Z,45.10
2018-04-10T07:26:22.188Z,45.00
2018-04-10T07:28:49.236Z,45.10
2018-04-10T07:31:16.193Z,45.10
2018-04-10T07:33:42.413Z,45.10
2018-04-10T07:36:08.645Z,45.10
2018-04-10T07:38:35.851Z,45.10
2018-04-10T07:41:02.024Z,45.00
2018-04-10T07:43:28.464Z,45.10
2018-04-10T07:45:54.679Z,45.10
2018-04-10T07:48:21.624Z,45.10
2018-04-10T07:50:47.963Z,45.00
2018-04-10T07:53:14.112Z,45.10
2018-04-10T07:55:40.424Z,45.00
2018-04-10T07:58:06.652Z,45.10
2018-04-10T08:00:32.881Z,45.80
2018-04-10T08:02:59.104Z,45.10
2018-04-10T08:05:25.332Z,45.10
2018-04-10T08:07:51.561Z,45.10
2018-04-10T08:10:17.767Z,45.10
2018-04-10T08:12:44.735Z,45.20
2018-04-10T08:15:11.213Z,45.10
2018-04-10T08:17:37.392Z,45.10
2018-04-10T08:20:03.855Z,45.10
2018-04-10T08:22:30.157Z,45.10
2018-04-10T08:24:56.587Z,45.80
2018-04-10T08:27:25.798Z,45.10
2018-04-10T08:29:52.358Z,45.20
2018-04-10T08:32:18.761Z,45.20
2018-04-10T08:34:44.989Z,45.20
2018-04-10T08:37:11.212Z,45.20
2018-04-10T08:39:37.842Z,45.10
2018-04-10T08:42:04.269Z,45.10
2018-04-10T08:44:30.731Z,45.80
2018-04-10T08:46:56.950Z,45.20
2018-04-10T08:49:23.180Z,45.10
2018-04-10T08:51:49.996Z,45.10
2018-04-10T08:54:16.424Z,45.20
2018-04-10T08:56:42.684Z,45.10
2018-04-10T08:59:08.918Z,45.10
2018-04-10T09:01:35.146Z,45.00
2018-04-10T09:04:01.541Z,45.10
2018-04-10T09:06:32.123Z,45.10
2018-04-10T09:08:58.339Z,45.00
2018-04-10T09:11:24.742Z,45.10
2018-04-10T09:13:51.164Z,45.10
2018-04-10T09:16:17.475Z,45.10
2018-04-10T09:18:44.782Z,45.20
2018-04-10T09:21:11.026Z,45.10
2018-04-10T09:23:37.503Z,45.10
2018-04-10T09:26:03.788Z,45.10
2018-04-10T09:28:30.164Z,45.10
2018-04-10T09:30:56.443Z,45.00
2018-04-10T09:33:22.677Z,45.10
2018-04-10T09:35:48.831Z,45.00
2018-04-10T09:38:15.776Z,45.10
2018-04-10T09:40:41.985Z,45.10
2018-04-10T09:43:08.339Z,45.00
2018-04-10T09:45:34.552Z,45.10
2018-04-10T09:48:01.472Z,45.00
2018-04-10T09:50:27.708Z,45.00
2018-04-10T09:52:54.085Z,45.00
2018-04-10T09:55:21.022Z,45.10
2018-04-10T09:57:47.302Z,45.10
2018-04-10T10:00:13.787Z,45.00
2018-04-10T10:02:39.970Z,45.00
2018-04-10T10:05:06.232Z,45.00
2018-04-10T10:07:32.389Z,45.00
2018-04-10T10:09:58.938Z,45.00
2018-04-10T10:12:25.324Z,45.00
2018-04-10T10:14:51.541Z,45.00
2018-04-10T10:17:17.957Z,45.00
2018-04-10T10:19:45.003Z,45.10
2018-04-10T10:22:12.052Z,45.80
2018-04-10T10:24:38.997Z,45.10
2018-04-10T10:27:05.263Z,45.00
2018-04-10T10:29:31.416Z,45.00
2018-04-10T10:31:57.801Z,45.00
2018-04-10T10:34:25.846Z,45.00
2018-04-10T10:36:52.035Z,45.10
2018-04-10T10:39:18.204Z,45.10
2018-04-10T10:41:44.588Z,45.10
2018-04-10T10:44:10.766Z,45.10
2018-04-10T10:46:37.757Z,45.10
2018-04-10T10:49:03.944Z,45.00
2018-04-10T10:51:30.172Z,45.10
2018-04-10T10:53:56.517Z,45.10
2018-04-10T10:56:22.733Z,45.10
2018-04-10T10:58:50.005Z,45.00
2018-04-10T11:01:16.330Z,45.00
2018-04-10T11:03:42.648Z,45.10
2018-04-10T11:06:08.875Z,45.10
2018-04-10T11:08:35.255Z,45.20
2018-04-10T11:11:01.579Z,45.10
2018-04-10T11:13:27.827Z,45.10
2018-04-10T11:15:54.104Z,45.10
2018-04-10T11:18:20.640Z,45.10
2018-04-10T11:20:46.852Z,45.00
2018-04-10T11:23:13.079Z,45.10
2018-04-10T11:25:40.996Z,45.00
2018-04-10T11:28:07.417Z,45.10
2018-04-10T11:30:33.646Z,45.00
2018-04-10T11:32:59.829Z,45.00
2018-04-10T11:35:26.759Z,45.10
2018-04-10T11:37:53.991Z,45.00
2018-04-10T11:40:26.101Z,45.00
2018-04-10T11:42:52.739Z,45.00
2018-04-10T11:45:20.196Z,45.10
2018-04-10T11:47:46.624Z,45.10
2018-04-10T11:50:12.871Z,45.10
2018-04-10T11:52:39.099Z,45.10
2018-04-10T11:55:05.329Z,45.10
2018-04-10T11:57:31.533Z,45.10
2018-04-10T11:59:57.688Z,45.20
2018-04-10T12:02:23.906Z,45.20
2018-04-10T12:04:50.133Z,45.10
2018-04-10T12:07:16.363Z,45.10
2018-04-10T12:09:42.530Z,45.00
2018-04-10T12:12:14.259Z,45.10
2018-04-10T12:14:40.576Z,45.20
2018-04-10T12:17:06.808Z,45.10
2018-04-10T12:19:33.314Z,45.10
2018-04-10T12:21:59.582Z,45.10
2018-04-10T12:24:25.998Z,45.10
2018-04-10T12:26:52.233Z,45.20
2018-04-10T12:29:18.467Z,45.20
2018-04-10T12:31:44.863Z,45.20
2018-04-10T12:34:13.963Z,45.10
2018-04-10T12:36:40.421Z,45.20
2018-04-10T12:39:06.819Z,45.20
2018-04-10T12:41:33.090Z,45.30
2018-04-10T12:43:59.312Z,45.30
2018-04-10T12:46:25.593Z,45.30
2018-04-10T12:48:51.776Z,45.30
2018-04-10T12:51:18.107Z,45.30
2018-04-10T12:56:16.401Z,45.30
2018-04-10T12:58:42.732Z,45.30
2018-04-10T13:01:08.961Z,45.30
2018-04-10T13:03:35.114Z,45.40
2018-04-10T13:06:02.052Z,45.40
2018-04-10T13:08:29.202Z,45.50
2018-04-10T13:10:55.423Z,45.50
2018-04-10T13:13:21.818Z,45.70
2018-04-10T13:15:48.258Z,45.50
2018-04-10T13:18:14.647Z,45.40
2018-04-10T13:20:40.823Z,45.50
2018-04-10T13:23:07.065Z,45.50
2018-04-10T13:25:33.530Z,45.30
2018-04-10T13:27:59.824Z,45.40
2018-04-10T13:30:26.191Z,45.50
2018-04-10T13:32:52.390Z,45.40
2018-04-10T13:35:19.450Z,45.60
2018-04-10T13:37:46.521Z,45.80
2018-04-10T13:40:13.579Z,45.70
2018-04-10T13:42:39.985Z,45.70
2018-04-10T13:45:06.586Z,45.80
2018-04-10T13:47:32.858Z,45.80
2018-04-10T13:49:59.171Z,45.80
2018-04-10T13:52:25.331Z,46.00
2018-04-10T13:54:51.484Z,45.90
2018-04-10T13:57:17.796Z,45.90
2018-04-10T13:59:43.970Z,45.80
2018-04-10T14:02:10.923Z,45.90
2018-04-10T14:04:37.147Z,45.90
2018-04-10T14:07:03.495Z,45.90
2018-04-10T14:09:29.705Z,46.00
2018-04-10T14:11:56.687Z,46.00
2018-04-10T14:14:22.998Z,45.90
2018-04-10T14:16:49.428Z,46.00
2018-04-10T14:19:15.698Z,45.90
2018-04-10T14:21:41.981Z,45.90
2018-04-10T14:24:08.209Z,46.00
2018-04-10T14:26:34.539Z,45.90
2018-04-10T14:29:00.768Z,45.90
2018-04-10T14:31:26.936Z,45.90
2018-04-10T14:33:53.264Z,45.80
2018-04-10T14:36:19.556Z,45.90
2018-04-10T14:38:45.887Z,46.00
2018-04-10T14:41:12.328Z,45.90
2018-04-10T14:43:38.770Z,45.90
2018-04-10T14:46:04.932Z,45.90
2018-04-10T14:48:31.096Z,45.90
2018-04-10T14:50:57.446Z,46.00
2018-04-10T14:53:23.793Z,45.90
2018-04-10T14:55:50.006Z,45.90
2018-04-10T14:58:16.480Z,45.90
2018-04-10T15:00:42.770Z,45.90
2018-04-10T15:03:08.991Z,45.90
2018-04-10T15:05:35.419Z,45.80
2018-04-10T15:08:01.585Z,45.80
2018-04-10T15:10:27.779Z,45.90
2018-04-10T15:12:54.074Z,45.90
2018-04-10T15:15:21.322Z,45.90
2018-04-10T15:17:50.350Z,45.90
2018-04-10T15:20:16.627Z,45.90
2018-04-10T15:22:43.639Z,46.00
2018-04-10T15:25:10.003Z,45.90
2018-04-10T15:27:36.397Z,45.90
2018-04-10T15:30:02.747Z,45.90
2018-04-10T15:32:29.061Z,45.90
2018-04-10T15:34:55.455Z,45.90
2018-04-10T15:37:21.770Z,45.90
2018-04-10T15:39:48.770Z,45.90
2018-04-10T15:42:15.036Z,45.90
2018-04-10T15:44:41.539Z,45.90
2018-04-10T15:47:07.998Z,45.90
2018-04-10T15:49:34.495Z,45.80
2018-04-10T15:52:00.947Z,45.90
2018-04-10T15:54:27.163Z,46.00
2018-04-10T15:56:53.391Z,46.00
2018-04-10T15:59:19.800Z,45.90
2018-04-10T16:01:46.048Z,46.00
2018-04-10T16:04:12.293Z,46.00
2018-04-10T16:06:38.616Z,46.00
2018-04-10T16:09:05.117Z,46.20
2018-04-10T16:11:31.380Z,45.90
2018-04-10T16:13:57.608Z,46.20
2018-04-10T16:16:23.836Z,46.00
2018-04-10T16:18:50.167Z,46.00
2018-04-10T16:21:16.537Z,46.10
2018-04-10T16:23:42.887Z,46.00
2018-04-10T16:26:09.364Z,46.10
2018-04-10T16:28:35.742Z,46.00
2018-04-10T16:31:08.121Z,46.20
2018-04-10T16:33:34.540Z,46.10
2018-04-10T16:36:00.915Z,46.10
2018-04-10T16:38:27.368Z,46.10
2018-04-10T16:40:53.841Z,46.10
2018-04-10T16:43:20.138Z,46.20
2018-04-10T16:45:46.540Z,46.10
2018-04-10T16:48:12.769Z,46.00
2018-04-10T16:50:39.229Z,46.10
2018-04-10T16:53:05.591Z,46.00
2018-04-10T16:55:32.222Z,46.00
2018-04-10T16:57:58.434Z,46.00
2018-04-10T17:00:25.378Z,46.10
2018-04-10T17:02:51.720Z,46.00
2018-04-10T17:05:17.937Z,46.10
2018-04-10T17:07:44.985Z,46.20
2018-04-10T17:10:14.120Z,46.10
2018-04-10T17:12:40.349Z,46.10
2018-04-10T17:15:07.460Z,46.20
2018-04-10T17:17:33.686Z,46.20
2018-04-10T17:20:00.025Z,46.20
2018-04-10T17:22:26.240Z,46.10
2018-04-10T17:24:52.488Z,46.20
2018-04-10T17:27:18.736Z,46.20
2018-04-10T17:29:44.927Z,46.20
2018-04-10T17:32:14.298Z,46.20
2018-04-10T17:34:40.475Z,46.20
2018-04-10T17:37:06.705Z,46.10
2018-04-10T17:39:32.937Z,46.20
2018-04-10T17:41:59.135Z,46.20
2018-04-10T17:44:25.364Z,46.10
2018-04-10T17:46:56.334Z,46.10
2018-04-10T17:49:22.640Z,46.20
2018-04-10T17:51:48.868Z,46.20
2018-04-10T17:54:15.391Z,46.10
2018-04-10T17:56:41.673Z,46.20
2018-04-10T17:59:07.990Z,46.20
2018-04-10T18:04:05.527Z,46.10
2018-04-10T18:06:32.066Z,46.20
2018-04-10T18:08:58.304Z,46.20
2018-04-10T18:11:24.719Z,46.20
2018-04-10T18:13:50.959Z,46.20
2018-04-10T18:16:17.133Z,46.20
2018-04-10T18:18:43.423Z,46.20
2018-04-10T18:21:09.688Z,46.20
2018-04-10T18:23:35.983Z,46.20
2018-04-10T18:26:02.499Z,46.20
2018-04-10T18:28:28.766Z,46.20
2018-04-10T18:30:54.977Z,46.00
2018-04-10T18:33:21.387Z,46.10
2018-04-10T18:35:47.826Z,46.20
2018-04-10T18:38:14.072Z,46.10
2018-04-10T18:40:40.300Z,46.10
2018-04-10T18:43:06.459Z,46.10
2018-04-10T18:45:32.659Z,46.00
2018-04-10T18:47:58.919Z,46.00
2018-04-10T18:50:25.215Z,46.20
2018-04-10T18:52:51.443Z,46.20
2018-04-10T18:55:17.774Z,46.20
2018-04-10T18:57:44.003Z,46.10
2018-04-10T19:00:10.360Z,46.20
2018-04-10T19:02:36.589Z,46.10
2018-04-10T19:05:02.905Z,46.20
2018-04-10T19:07:29.405Z,46.20
2018-04-10T19:09:55.876Z,46.00
2018-04-10T19:12:22.137Z,46.10
2018-04-10T19:14:48.524Z,46.10
2018-04-10T19:17:14.727Z,45.90
2018-04-10T19:19:44.199Z,46.10
2018-04-10T19:22:10.384Z,46.10
2018-04-10T19:24:36.653Z,46.00
2018-04-10T19:27:02.944Z,46.00
2018-04-10T19:29:29.112Z,46.10
2018-04-10T19:31:55.292Z,46.00
2018-04-10T19:34:21.775Z,46.20
2018-04-10T19:36:48.876Z,46.20
2018-04-10T19:39:15.105Z,46.20
2018-04-10T19:41:41.364Z,46.30
2018-04-10T19:44:07.531Z,46.30
2018-04-10T19:46:38.451Z,46.10
2018-04-10T19:49:04.700Z,45.70
2018-04-10T19:51:31.360Z,46.10
2018-04-10T19:53:57.608Z,46.30
2018-04-10T19:56:23.983Z,46.30
2018-04-10T19:58:50.171Z,46.20
2018-04-10T20:01:17.204Z,46.20
2018-04-10T20:03:44.160Z,46.20
2018-04-10T20:06:14.223Z,46.80
2018-04-10T20:08:40.504Z,46.00
2018-04-10T20:11:08.295Z,45.90
2018-04-10T20:13:34.495Z,45.90
2018-04-10T20:16:01.543Z,46.10
2018-04-10T20:18:28.640Z,46.00
2018-04-10T20:20:54.828Z,45.90
2018-04-10T20:23:21.912Z,45.90
2018-04-10T20:25:48.090Z,45.90
2018-04-10T20:28:15.404Z,45.90
2018-04-10T20:30:41.705Z,45.90
2018-04-10T20:33:08.024Z,45.90
2018-04-10T20:35:34.254Z,45.80
2018-04-10T20:38:00.475Z,45.90
2018-04-10T20:40:26.919Z,46.00
2018-04-10T20:42:53.136Z,46.00
2018-04-10T20:45:19.576Z,46.00
2018-04-10T20:47:46.064Z,45.90
2018-04-10T20:50:12.334Z,46.00
2018-04-10T20:52:38.511Z,45.90
2018-04-10T20:55:04.932Z,45.90
2018-04-10T20:57:31.118Z,46.00
2018-04-10T20:59:57.353Z,46.00
2018-04-10T21:02:26.344Z,45.90
2018-04-10T21:04:52.559Z,45.90
2018-04-10T21:07:18.712Z,45.90
2018-04-10T21:09:44.914Z,46.00
2018-04-10T21:12:11.253Z,45.90
2018-04-10T21:14:37.523Z,45.90
2018-04-10T21:19:36.035Z,46.00
2018-04-10T21:22:02.231Z,46.00
2018-04-10T21:24:28.445Z,46.00
2018-04-10T21:26:54.762Z,46.00
2018-04-10T21:29:20.992Z,46.00
2018-04-10T21:31:47.226Z,45.90
2018-04-10T21:34:14.367Z,46.00
2018-04-10T21:36:40.604Z,46.00
2018-04-10T21:39:06.750Z,46.00
2018-04-10T21:41:33.056Z,46.10
2018-04-10T21:43:59.476Z,46.00
2018-04-10T21:46:25.902Z,46.00
2018-04-10T21:48:52.336Z,46.00
2018-04-10T21:51:18.514Z,46.00
2018-04-10T21:53:44.711Z,46.10
2018-04-10T21:56:10.950Z,45.90
2018-04-10T21:58:37.455Z,45.90
2018-04-10T22:01:04.043Z,46.00
2018-04-10T22:03:30.200Z,46.00
2018-04-10T22:05:56.480Z,46.10
2018-04-10T22:08:22.977Z,46.00
2018-04-10T22:10:49.404Z,46.10
2018-04-10T22:13:15.832Z,46.10
2018-04-10T22:15:42.111Z,46.10
2018-04-10T22:18:08.340Z,46.10
2018-04-10T22:20:34.568Z,46.10
2018-04-10T22:23:00.816Z,46.20
2018-04-10T22:25:27.128Z,46.20
2018-04-10T22:27:53.383Z,46.20
2018-04-10T22:30:20.301Z,46.20
2018-04-10T22:32:46.493Z,46.20
2018-04-10T22:35:12.876Z,46.20
2018-04-10T22:37:39.101Z,46.20
2018-04-10T22:40:05.436Z,46.20
2018-04-10T22:42:31.770Z,46.20
2018-04-10T22:44:57.940Z,46.20
2018-04-10T22:47:24.171Z,46.30
2018-04-10T22:49:50.420Z,46.20
2018-04-10T22:52:17.443Z,46.30
2018-04-10T22:54:43.676Z,46.30
2018-04-10T22:57:10.193Z,46.30
2018-04-10T22:59:36.477Z,46.30
2018-04-10T23:02:02.811Z,46.30
2018-04-10T23:04:29.129Z,46.40
2018-04-10T23:06:56.165Z,46.40
2018-04-10T23:09:22.552Z,46.40
2018-04-10T23:11:48.734Z,46.40
2018-04-10T23:14:16.067Z,46.50
2018-04-10T23:16:42.422Z,46.50
2018-04-10T23:19:14.220Z,46.50
2018-04-10T23:21:40.388Z,46.50
2018-04-10T23:24:06.647Z,46.60
2018-04-10T23:26:33.695Z,46.50
2018-04-10T23:29:00.742Z,46.60
2018-04-10T23:31:27.831Z,46.60
2018-04-10T23:33:54.029Z,46.50
2018-04-10T23:36:21.279Z,46.50
2018-04-10T23:38:48.230Z,46.70
2018-04-10T23:41:14.420Z,46.50
2018-04-10T23:43:40.688Z,46.50
2018-04-10T23:46:06.956Z,46.60
2018-04-10T23:48:33.242Z,46.70
2018-04-10T23:51:00.187Z,46.60
2018-04-10T23:53:26.529Z,46.70
2018-04-10T23:55:52.752Z,46.70
2018-04-10T23:58:18.985Z,46.60
